sensor_id;sensor_type;location;lat;lon;timestamp;temperature;humidity
19665;DHT22;9980;51.020;7.772;2023-02-01T00:00:23;8.00;99.90
19665;DHT22;9980;51.020;7.772;2023-02-01T00:02:49;8.10;99.90
19665;DHT22;9980;51.020;7.772;2023-02-01T00:05:16;8.10;99.90
19665;DHT22;9980;51.020;7.772;2023-02-01T00:07:42;8.10;99.90
19665;DHT22;9980;51.020;7.772;2023-02-01T00:10:08;8.10;99.90
19665;DHT22;9980;51.020;7.772;2023-02-01T00:12:35;8.10;99.90
19665;DHT22;9980;51.020;7.772;2023-02-01T00:15:02;8.20;99.90
19665;DHT22;9980;51.020;7.772;2023-02-01T00:17:28;8.10;99.90
19665;DHT22;9980;51.020;7.772;2023-02-01T00:19:54;8.20;99.90
19665;DHT22;9980;51.020;7.772;2023-02-01T00:22:20;8.20;99.90
19665;DHT22;9980;51.020;7.772;2023-02-01T00:24:47;8.20;99.90
19665;DHT22;9980;51.020;7.772;2023-02-01T00:27:13;8.20;99.90
19665;DHT22;9980;51.020;7.772;2023-02-01T00:29:44;8.20;99.90
19665;DHT22;9980;51.020;7.772;2023-02-01T00:32:10;8.10;99.90
19665;DHT22;9980;51.020;7.772;2023-02-01T00:34:37;8.10;99.90
19665;DHT22;9980;51.020;7.772;2023-02-01T00:37:03;8.20;99.90
19665;DHT22;9980;51.020;7.772;2023-02-01T00:39:29;8.10;99.90
19665;DHT22;9980;51.020;7.772;2023-02-01T00:41:56;8.20;99.90
19665;DHT22;9980;51.020;7.772;2023-02-01T00:44:22;8.20;99.90
19665;DHT22;9980;51.020;7.772;2023-02-01T00:46:48;8.10;99.90
19665;DHT22;9980;51.020;7.772;2023-02-01T00:49:14;8.10;99.90
19665;DHT22;9980;51.020;7.772;2023-02-01T00:51:40;8.20;99.90
19665;DHT22;9980;51.020;7.772;2023-02-01T00:54:07;8.10;99.90
19665;DHT22;9980;51.020;7.772;2023-02-01T00:56:33;8.20;99.90
19665;DHT22;9980;51.020;7.772;2023-02-01T00:58:59;8.20;99.90
19665;DHT22;9980;51.020;7.772;2023-02-01T01:01:27;8.20;99.90
19665;DHT22;9980;51.020;7.772;2023-02-01T01:03:59;8.20;99.90
19665;DHT22;9980;51.020;7.772;2023-02-01T01:06:28;8.20;99.90
19665;DHT22;9980;51.020;7.772;2023-02-01T01:08:58;8.20;99.90
19665;DHT22;9980;51.020;7.772;2023-02-01T01:11:29;8.20;99.90
19665;DHT22;9980;51.020;7.772;2023-02-01T01:13:58;8.20;99.90
19665;DHT22;9980;51.020;7.772;2023-02-01T01:16:27;8.20;99.90
19665;DHT22;9980;51.020;7.772;2023-02-01T01:18:55;8.10;99.90
19665;DHT22;9980;51.020;7.772;2023-02-01T01:21:22;8.20;99.90
19665;DHT22;9980;51.020;7.772;2023-02-01T01:23:49;8.20;99.90
19665;DHT22;9980;51.020;7.772;2023-02-01T01:26:23;8.20;99.90
19665;DHT22;9980;51.020;7.772;2023-02-01T01:28:51;8.20;99.90
19665;DHT22;9980;51.020;7.772;2023-02-01T01:31:19;8.20;99.90
19665;DHT22;9980;51.020;7.772;2023-02-01T01:33:51;8.20;99.90
19665;DHT22;9980;51.020;7.772;2023-02-01T01:36:19;8.20;99.90
19665;DHT22;9980;51.020;7.772;2023-02-01T01:38:47;8.20;99.90
19665;DHT22;9980;51.020;7.772;2023-02-01T01:41:17;8.20;99.90
19665;DHT22;9980;51.020;7.772;2023-02-01T01:44:05;8.10;99.90
19665;DHT22;9980;51.020;7.772;2023-02-01T01:46:52;8.20;99.90
19665;DHT22;9980;51.020;7.772;2023-02-01T01:49:21;8.20;99.90
19665;DHT22;9980;51.020;7.772;2023-02-01T01:51:54;8.10;99.90
19665;DHT22;9980;51.020;7.772;2023-02-01T01:54:31;8.10;99.90
19665;DHT22;9980;51.020;7.772;2023-02-01T01:57:26;8.10;99.90
19665;DHT22;9980;51.020;7.772;2023-02-01T02:02:46;8.10;99.90
19665;DHT22;9980;51.020;7.772;2023-02-01T02:05:15;8.10;99.90
19665;DHT22;9980;51.020;7.772;2023-02-01T02:07:46;8.10;99.90
19665;DHT22;9980;51.020;7.772;2023-02-01T02:10:16;8.10;99.90
19665;DHT22;9980;51.020;7.772;2023-02-01T02:12:44;8.10;99.90
19665;DHT22;9980;51.020;7.772;2023-02-01T02:15:14;8.10;99.90
19665;DHT22;9980;51.020;7.772;2023-02-01T02:35:37;8.00;99.90
19665;DHT22;9980;51.020;7.772;2023-02-01T02:38:20;8.00;99.90
19665;DHT22;9980;51.020;7.772;2023-02-01T02:41:15;8.00;99.90
19665;DHT22;9980;51.020;7.772;2023-02-01T02:44:12;7.90;99.90
19665;DHT22;9980;51.020;7.772;2023-02-01T02:47:06;7.90;99.90
19665;DHT22;9980;51.020;7.772;2023-02-01T02:53:16;7.90;99.90
19665;DHT22;9980;51.020;7.772;2023-02-01T02:56:06;7.80;99.90
19665;DHT22;9980;51.020;7.772;2023-02-01T02:58:52;7.90;99.90
19665;DHT22;9980;51.020;7.772;2023-02-01T03:01:41;7.80;99.90
19665;DHT22;9980;51.020;7.772;2023-02-01T03:04:26;7.80;99.90
19665;DHT22;9980;51.020;7.772;2023-02-01T03:06:53;7.80;99.90
19665;DHT22;9980;51.020;7.772;2023-02-01T03:09:27;7.70;99.90
19665;DHT22;9980;51.020;7.772;2023-02-01T03:12:05;7.70;99.90
19665;DHT22;9980;51.020;7.772;2023-02-01T03:14:57;7.70;99.90
19665;DHT22;9980;51.020;7.772;2023-02-01T03:17:35;7.70;99.90
19665;DHT22;9980;51.020;7.772;2023-02-01T03:20:09;7.70;99.90
19665;DHT22;9980;51.020;7.772;2023-02-01T03:22:41;7.60;99.90
19665;DHT22;9980;51.020;7.772;2023-02-01T03:25:21;7.60;99.90
19665;DHT22;9980;51.020;7.772;2023-02-01T03:28:04;7.60;99.90
19665;DHT22;9980;51.020;7.772;2023-02-01T03:30:37;7.50;99.90
19665;DHT22;9980;51.020;7.772;2023-02-01T03:33:09;7.50;99.90
19665;DHT22;9980;51.020;7.772;2023-02-01T03:36:10;7.40;99.90
19665;DHT22;9980;51.020;7.772;2023-02-01T03:39:14;7.40;99.90
19665;DHT22;9980;51.020;7.772;2023-02-01T03:41:50;7.40;99.90
19665;DHT22;9980;51.020;7.772;2023-02-01T03:44:26;7.40;99.90
19665;DHT22;9980;51.020;7.772;2023-02-01T03:47:03;7.30;99.90
19665;DHT22;9980;51.020;7.772;2023-02-01T03:49:41;7.30;99.90
19665;DHT22;9980;51.020;7.772;2023-02-01T03:52:14;7.30;99.90
19665;DHT22;9980;51.020;7.772;2023-02-01T03:54:45;7.30;99.90
19665;DHT22;9980;51.020;7.772;2023-02-01T03:57:16;7.30;99.90
19665;DHT22;9980;51.020;7.772;2023-02-01T03:59:46;7.30;99.90
19665;DHT22;9980;51.020;7.772;2023-02-01T04:02:12;7.30;99.90
19665;DHT22;9980;51.020;7.772;2023-02-01T04:04:39;7.30;99.90
19665;DHT22;9980;51.020;7.772;2023-02-01T04:07:05;7.30;99.90
19665;DHT22;9980;51.020;7.772;2023-02-01T04:09:32;7.30;99.90
19665;DHT22;9980;51.020;7.772;2023-02-01T04:11:58;7.30;99.90
19665;DHT22;9980;51.020;7.772;2023-02-01T04:14:24;7.30;99.90
19665;DHT22;9980;51.020;7.772;2023-02-01T04:16:50;7.30;99.90
19665;DHT22;9980;51.020;7.772;2023-02-01T04:19:17;7.30;99.90
19665;DHT22;9980;51.020;7.772;2023-02-01T04:21:43;7.30;99.90
19665;DHT22;9980;51.020;7.772;2023-02-01T04:24:09;7.30;99.90
19665;DHT22;9980;51.020;7.772;2023-02-01T04:26:36;7.30;99.90
19665;DHT22;9980;51.020;7.772;2023-02-01T04:29:02;7.30;99.90
19665;DHT22;9980;51.020;7.772;2023-02-01T04:31:28;7.40;99.90
19665;DHT22;9980;51.020;7.772;2023-02-01T04:33:55;7.30;99.90
19665;DHT22;9980;51.020;7.772;2023-02-01T04:36:23;7.40;99.90
19665;DHT22;9980;51.020;7.772;2023-02-01T04:38:50;7.40;99.90
19665;DHT22;9980;51.020;7.772;2023-02-01T04:41:17;7.40;99.90
19665;DHT22;9980;51.020;7.772;2023-02-01T04:43:48;7.40;99.90
19665;DHT22;9980;51.020;7.772;2023-02-01T04:46:16;7.40;99.90
19665;DHT22;9980;51.020;7.772;2023-02-01T04:48:43;7.40;99.90
19665;DHT22;9980;51.020;7.772;2023-02-01T04:51:09;7.40;99.90
19665;DHT22;9980;51.020;7.772;2023-02-01T04:53:36;7.40;99.90
19665;DHT22;9980;51.020;7.772;2023-02-01T04:56:03;7.40;99.90
19665;DHT22;9980;51.020;7.772;2023-02-01T04:58:29;7.30;99.90
19665;DHT22;9980;51.020;7.772;2023-02-01T05:00:55;7.30;99.90
19665;DHT22;9980;51.020;7.772;2023-02-01T05:03:22;7.30;99.90
19665;DHT22;9980;51.020;7.772;2023-02-01T05:05:48;7.30;99.90
19665;DHT22;9980;51.020;7.772;2023-02-01T05:08:15;7.30;99.90
19665;DHT22;9980;51.020;7.772;2023-02-01T05:10:41;7.30;99.90
19665;DHT22;9980;51.020;7.772;2023-02-01T05:13:09;7.30;99.90
19665;DHT22;9980;51.020;7.772;2023-02-01T05:15:54;7.30;99.90
19665;DHT22;9980;51.020;7.772;2023-02-01T05:18:21;7.30;99.90
19665;DHT22;9980;51.020;7.772;2023-02-01T05:20:47;7.30;99.90
19665;DHT22;9980;51.020;7.772;2023-02-01T05:23:13;7.30;99.90
19665;DHT22;9980;51.020;7.772;2023-02-01T05:25:39;7.30;99.90
19665;DHT22;9980;51.020;7.772;2023-02-01T05:28:05;7.30;99.90
19665;DHT22;9980;51.020;7.772;2023-02-01T05:30:32;7.30;99.90
19665;DHT22;9980;51.020;7.772;2023-02-01T05:33:01;7.40;99.90
19665;DHT22;9980;51.020;7.772;2023-02-01T05:35:28;7.40;99.90
19665;DHT22;9980;51.020;7.772;2023-02-01T05:37:55;7.40;99.90
19665;DHT22;9980;51.020;7.772;2023-02-01T05:40:21;7.40;99.90
19665;DHT22;9980;51.020;7.772;2023-02-01T05:42:48;7.40;99.90
19665;DHT22;9980;51.020;7.772;2023-02-01T05:45:14;7.40;99.90
19665;DHT22;9980;51.020;7.772;2023-02-01T05:47:40;7.40;99.90
19665;DHT22;9980;51.020;7.772;2023-02-01T05:50:07;7.40;99.90
19665;DHT22;9980;51.020;7.772;2023-02-01T05:52:33;7.40;99.90
19665;DHT22;9980;51.020;7.772;2023-02-01T05:54:59;7.50;99.90
19665;DHT22;9980;51.020;7.772;2023-02-01T05:57:26;7.50;99.90
19665;DHT22;9980;51.020;7.772;2023-02-01T05:59:52;7.50;99.90
19665;DHT22;9980;51.020;7.772;2023-02-01T06:02:18;7.50;99.90
19665;DHT22;9980;51.020;7.772;2023-02-01T06:04:44;7.50;99.90
19665;DHT22;9980;51.020;7.772;2023-02-01T06:07:10;7.50;99.90
19665;DHT22;9980;51.020;7.772;2023-02-01T06:09:37;7.50;99.90
19665;DHT22;9980;51.020;7.772;2023-02-01T06:12:04;7.50;99.90
19665;DHT22;9980;51.020;7.772;2023-02-01T06:14:30;7.50;99.90
19665;DHT22;9980;51.020;7.772;2023-02-01T06:16:56;7.60;99.90
19665;DHT22;9980;51.020;7.772;2023-02-01T06:19:23;7.60;99.90
19665;DHT22;9980;51.020;7.772;2023-02-01T06:21:50;7.60;99.90
19665;DHT22;9980;51.020;7.772;2023-02-01T06:24:16;7.60;99.90
19665;DHT22;9980;51.020;7.772;2023-02-01T06:26:43;7.60;99.90
19665;DHT22;9980;51.020;7.772;2023-02-01T06:29:10;7.60;99.90
19665;DHT22;9980;51.020;7.772;2023-02-01T06:31:36;7.60;99.90
19665;DHT22;9980;51.020;7.772;2023-02-01T06:34:03;7.60;99.90
19665;DHT22;9980;51.020;7.772;2023-02-01T06:36:29;7.60;99.90
19665;DHT22;9980;51.020;7.772;2023-02-01T06:38:56;7.60;99.90
19665;DHT22;9980;51.020;7.772;2023-02-01T06:41:23;7.60;99.90
19665;DHT22;9980;51.020;7.772;2023-02-01T06:43:49;7.60;99.90
19665;DHT22;9980;51.020;7.772;2023-02-01T06:46:15;7.60;99.90
19665;DHT22;9980;51.020;7.772;2023-02-01T06:48:42;7.60;99.90
19665;DHT22;9980;51.020;7.772;2023-02-01T06:51:22;7.60;99.90
19665;DHT22;9980;51.020;7.772;2023-02-01T06:53:50;7.60;99.90
19665;DHT22;9980;51.020;7.772;2023-02-01T06:56:17;7.60;99.90
19665;DHT22;9980;51.020;7.772;2023-02-01T06:58:43;7.60;99.90
19665;DHT22;9980;51.020;7.772;2023-02-01T07:01:11;7.60;99.90
19665;DHT22;9980;51.020;7.772;2023-02-01T07:03:38;7.60;99.90
19665;DHT22;9980;51.020;7.772;2023-02-01T07:06:04;7.60;99.90
19665;DHT22;9980;51.020;7.772;2023-02-01T07:08:33;7.60;99.90
19665;DHT22;9980;51.020;7.772;2023-02-01T07:11:06;7.60;99.90
19665;DHT22;9980;51.020;7.772;2023-02-01T07:13:33;7.60;99.90
19665;DHT22;9980;51.020;7.772;2023-02-01T07:16:02;7.60;99.90
19665;DHT22;9980;51.020;7.772;2023-02-01T07:18:31;7.60;99.90
19665;DHT22;9980;51.020;7.772;2023-02-01T07:20:59;7.60;99.90
19665;DHT22;9980;51.020;7.772;2023-02-01T07:23:26;7.60;99.90
19665;DHT22;9980;51.020;7.772;2023-02-01T07:26:04;7.60;99.90
19665;DHT22;9980;51.020;7.772;2023-02-01T07:28:34;7.60;99.90
19665;DHT22;9980;51.020;7.772;2023-02-01T07:31:06;7.60;99.90
19665;DHT22;9980;51.020;7.772;2023-02-01T07:33:37;7.60;99.90
19665;DHT22;9980;51.020;7.772;2023-02-01T07:36:05;7.60;99.90
19665;DHT22;9980;51.020;7.772;2023-02-01T07:38:33;7.60;99.90
19665;DHT22;9980;51.020;7.772;2023-02-01T07:41:04;7.60;99.90
19665;DHT22;9980;51.020;7.772;2023-02-01T07:43:34;7.60;99.90
19665;DHT22;9980;51.020;7.772;2023-02-01T07:46:02;7.60;99.90
19665;DHT22;9980;51.020;7.772;2023-02-01T07:48:30;7.60;99.90
19665;DHT22;9980;51.020;7.772;2023-02-01T07:51:10;7.60;99.90
19665;DHT22;9980;51.020;7.772;2023-02-01T07:53:38;7.60;99.90
19665;DHT22;9980;51.020;7.772;2023-02-01T07:56:14;7.60;99.90
19665;DHT22;9980;51.020;7.772;2023-02-01T07:58:42;7.60;99.90
19665;DHT22;9980;51.020;7.772;2023-02-01T08:01:16;7.60;99.90
19665;DHT22;9980;51.020;7.772;2023-02-01T08:03:53;7.60;99.90
19665;DHT22;9980;51.020;7.772;2023-02-01T08:06:22;7.60;99.90
19665;DHT22;9980;51.020;7.772;2023-02-01T08:08:49;7.60;99.90
19665;DHT22;9980;51.020;7.772;2023-02-01T08:11:17;7.60;99.90
19665;DHT22;9980;51.020;7.772;2023-02-01T08:13:44;7.60;99.90
19665;DHT22;9980;51.020;7.772;2023-02-01T08:16:11;7.60;99.90
19665;DHT22;9980;51.020;7.772;2023-02-01T08:18:40;7.60;99.90
19665;DHT22;9980;51.020;7.772;2023-02-01T08:21:13;7.60;99.90
19665;DHT22;9980;51.020;7.772;2023-02-01T08:23:41;7.60;99.90
19665;DHT22;9980;51.020;7.772;2023-02-01T08:26:13;7.60;99.90
19665;DHT22;9980;51.020;7.772;2023-02-01T08:28:47;7.60;99.90
19665;DHT22;9980;51.020;7.772;2023-02-01T08:31:18;7.60;99.90
19665;DHT22;9980;51.020;7.772;2023-02-01T08:33:50;7.60;99.90
19665;DHT22;9980;51.020;7.772;2023-02-01T08:36:19;7.60;99.90
19665;DHT22;9980;51.020;7.772;2023-02-01T08:38:46;7.60;99.90
19665;DHT22;9980;51.020;7.772;2023-02-01T08:41:14;7.60;99.90
19665;DHT22;9980;51.020;7.772;2023-02-01T08:43:43;7.60;99.90
19665;DHT22;9980;51.020;7.772;2023-02-01T08:46:10;7.60;99.90
19665;DHT22;9980;51.020;7.772;2023-02-01T08:48:38;7.60;99.90
19665;DHT22;9980;51.020;7.772;2023-02-01T08:51:09;7.60;99.90
19665;DHT22;9980;51.020;7.772;2023-02-01T08:53:38;7.60;99.90
19665;DHT22;9980;51.020;7.772;2023-02-01T08:56:07;7.60;99.90
19665;DHT22;9980;51.020;7.772;2023-02-01T08:58:35;7.60;99.90
19665;DHT22;9980;51.020;7.772;2023-02-01T09:01:20;7.60;99.90
19665;DHT22;9980;51.020;7.772;2023-02-01T09:03:46;7.60;99.90
19665;DHT22;9980;51.020;7.772;2023-02-01T09:06:14;7.60;99.90
19665;DHT22;9980;51.020;7.772;2023-02-01T09:08:41;7.60;99.90
19665;DHT22;9980;51.020;7.772;2023-02-01T09:11:12;7.60;99.90
19665;DHT22;9980;51.020;7.772;2023-02-01T09:13:40;7.60;99.90
19665;DHT22;9980;51.020;7.772;2023-02-01T09:16:06;7.60;99.90
19665;DHT22;9980;51.020;7.772;2023-02-01T09:18:33;7.60;99.90
19665;DHT22;9980;51.020;7.772;2023-02-01T09:21:04;7.60;99.90
19665;DHT22;9980;51.020;7.772;2023-02-01T09:23:33;7.60;99.90
19665;DHT22;9980;51.020;7.772;2023-02-01T09:26:01;7.60;99.90
19665;DHT22;9980;51.020;7.772;2023-02-01T09:28:29;7.60;99.90
19665;DHT22;9980;51.020;7.772;2023-02-01T09:30:57;7.60;99.90
19665;DHT22;9980;51.020;7.772;2023-02-01T09:33:26;7.60;99.90
19665;DHT22;9980;51.020;7.772;2023-02-01T09:35:57;7.60;99.90
19665;DHT22;9980;51.020;7.772;2023-02-01T09:38:25;7.60;99.90
19665;DHT22;9980;51.020;7.772;2023-02-01T09:40:53;7.70;99.90
19665;DHT22;9980;51.020;7.772;2023-02-01T09:43:40;7.70;99.90
19665;DHT22;9980;51.020;7.772;2023-02-01T09:46:23;7.70;99.90
19665;DHT22;9980;51.020;7.772;2023-02-01T09:48:54;7.70;99.90
19665;DHT22;9980;51.020;7.772;2023-02-01T09:51:30;7.60;99.90
19665;DHT22;9980;51.020;7.772;2023-02-01T09:54:19;7.70;99.90
19665;DHT22;9980;51.020;7.772;2023-02-01T09:59:57;7.70;99.90
19665;DHT22;9980;51.020;7.772;2023-02-01T10:02:39;7.70;99.90
19665;DHT22;9980;51.020;7.772;2023-02-01T10:05:16;7.70;99.90
19665;DHT22;9980;51.020;7.772;2023-02-01T10:07:51;7.70;99.90
19665;DHT22;9980;51.020;7.772;2023-02-01T10:10:31;7.70;99.90
19665;DHT22;9980;51.020;7.772;2023-02-01T10:13:15;7.70;99.90
19665;DHT22;9980;51.020;7.772;2023-02-01T10:18:45;7.70;99.90
19665;DHT22;9980;51.020;7.772;2023-02-01T10:21:53;7.70;99.90
19665;DHT22;9980;51.020;7.772;2023-02-01T10:24:46;7.70;99.90
19665;DHT22;9980;51.020;7.772;2023-02-01T10:27:43;7.70;99.90
19665;DHT22;9980;51.020;7.772;2023-02-01T10:30:21;7.80;99.90
19665;DHT22;9980;51.020;7.772;2023-02-01T10:32:56;7.80;99.90
19665;DHT22;9980;51.020;7.772;2023-02-01T10:35:34;7.80;99.90
19665;DHT22;9980;51.020;7.772;2023-02-01T10:38:12;7.80;99.90
19665;DHT22;9980;51.020;7.772;2023-02-01T10:40:53;7.80;99.90
19665;DHT22;9980;51.020;7.772;2023-02-01T10:43:23;7.80;99.90
19665;DHT22;9980;51.020;7.772;2023-02-01T10:45:49;7.80;99.90
19665;DHT22;9980;51.020;7.772;2023-02-01T10:48:15;7.80;99.90
19665;DHT22;9980;51.020;7.772;2023-02-01T10:50:59;7.80;99.90
19665;DHT22;9980;51.020;7.772;2023-02-01T10:53:50;7.80;99.90
19665;DHT22;9980;51.020;7.772;2023-02-01T10:56:23;7.90;99.90
19665;DHT22;9980;51.020;7.772;2023-02-01T10:58:51;7.90;99.90
19665;DHT22;9980;51.020;7.772;2023-02-01T11:01:31;7.90;99.90
19665;DHT22;9980;51.020;7.772;2023-02-01T11:04:03;7.90;99.90
19665;DHT22;9980;51.020;7.772;2023-02-01T11:06:35;7.90;99.90
19665;DHT22;9980;51.020;7.772;2023-02-01T11:11:56;7.90;99.90
19665;DHT22;9980;51.020;7.772;2023-02-01T11:17:01;7.90;99.90
19665;DHT22;9980;51.020;7.772;2023-02-01T11:19:46;7.90;99.90
19665;DHT22;9980;51.020;7.772;2023-02-01T11:22:25;8.00;99.90
19665;DHT22;9980;51.020;7.772;2023-02-01T11:24:53;8.00;99.90
19665;DHT22;9980;51.020;7.772;2023-02-01T11:27:22;8.00;99.90
19665;DHT22;9980;51.020;7.772;2023-02-01T11:30:01;8.00;99.90
19665;DHT22;9980;51.020;7.772;2023-02-01T11:32:30;8.00;99.90
19665;DHT22;9980;51.020;7.772;2023-02-01T11:35:00;8.00;99.90
19665;DHT22;9980;51.020;7.772;2023-02-01T11:37:41;8.00;99.90
19665;DHT22;9980;51.020;7.772;2023-02-01T11:42:56;8.10;99.90
19665;DHT22;9980;51.020;7.772;2023-02-01T11:45:31;8.10;99.90
19665;DHT22;9980;51.020;7.772;2023-02-01T11:48:14;8.10;99.90
19665;DHT22;9980;51.020;7.772;2023-02-01T11:51:08;8.10;99.90
19665;DHT22;9980;51.020;7.772;2023-02-01T11:54:10;8.20;99.90
19665;DHT22;9980;51.020;7.772;2023-02-01T12:06:11;8.30;99.90
19665;DHT22;9980;51.020;7.772;2023-02-01T12:20:41;8.30;99.90
19665;DHT22;9980;51.020;7.772;2023-02-01T12:29:31;8.40;99.90
19665;DHT22;9980;51.020;7.772;2023-02-01T12:43:36;8.40;99.90
19665;DHT22;9980;51.020;7.772;2023-02-01T12:46:28;8.40;99.90
19665;DHT22;9980;51.020;7.772;2023-02-01T12:51:38;8.40;99.90
19665;DHT22;9980;51.020;7.772;2023-02-01T12:54:20;8.40;99.90
19665;DHT22;9980;51.020;7.772;2023-02-01T12:57:04;8.40;99.90
19665;DHT22;9980;51.020;7.772;2023-02-01T12:59:44;8.40;99.90
19665;DHT22;9980;51.020;7.772;2023-02-01T13:02:45;8.40;99.90
19665;DHT22;9980;51.020;7.772;2023-02-01T13:05:54;8.40;99.90
19665;DHT22;9980;51.020;7.772;2023-02-01T13:08:38;8.30;99.90
19665;DHT22;9980;51.020;7.772;2023-02-01T13:11:15;8.30;99.90
19665;DHT22;9980;51.020;7.772;2023-02-01T13:16:53;8.30;99.90
19665;DHT22;9980;51.020;7.772;2023-02-01T13:20:03;8.30;99.90
19665;DHT22;9980;51.020;7.772;2023-02-01T13:22:40;8.30;99.90
19665;DHT22;9980;51.020;7.772;2023-02-01T13:25:11;8.20;99.90
19665;DHT22;9980;51.020;7.772;2023-02-01T13:27:41;8.20;99.90
19665;DHT22;9980;51.020;7.772;2023-02-01T13:30:21;8.20;99.90
19665;DHT22;9980;51.020;7.772;2023-02-01T13:39:58;8.20;99.90
19665;DHT22;9980;51.020;7.772;2023-02-01T13:42:53;8.20;99.90
19665;DHT22;9980;51.020;7.772;2023-02-01T13:45:27;8.20;99.90
19665;DHT22;9980;51.020;7.772;2023-02-01T13:47:59;8.20;99.90
19665;DHT22;9980;51.020;7.772;2023-02-01T13:50:36;8.20;99.90
19665;DHT22;9980;51.020;7.772;2023-02-01T13:53:17;8.20;99.90
19665;DHT22;9980;51.020;7.772;2023-02-01T13:55:55;8.20;99.90
19665;DHT22;9980;51.020;7.772;2023-02-01T13:58:36;8.20;99.90
19665;DHT22;9980;51.020;7.772;2023-02-01T14:04:03;8.20;99.90
19665;DHT22;9980;51.020;7.772;2023-02-01T14:11:54;8.20;99.90
19665;DHT22;9980;51.020;7.772;2023-02-01T14:19:25;8.20;99.90
19665;DHT22;9980;51.020;7.772;2023-02-01T14:21:59;8.20;99.90
19665;DHT22;9980;51.020;7.772;2023-02-01T14:24:56;8.20;99.90
19665;DHT22;9980;51.020;7.772;2023-02-01T14:27:26;8.20;99.90
19665;DHT22;9980;51.020;7.772;2023-02-01T14:30:00;8.20;99.90
19665;DHT22;9980;51.020;7.772;2023-02-01T14:32:34;8.20;99.90
19665;DHT22;9980;51.020;7.772;2023-02-01T14:35:26;8.20;99.90
19665;DHT22;9980;51.020;7.772;2023-02-01T14:37:58;8.20;99.90
19665;DHT22;9980;51.020;7.772;2023-02-01T14:40:28;8.10;99.90
19665;DHT22;9980;51.020;7.772;2023-02-01T14:42:55;8.10;99.90
19665;DHT22;9980;51.020;7.772;2023-02-01T14:47:51;8.10;99.90
19665;DHT22;9980;51.020;7.772;2023-02-01T14:50:46;8.10;99.90
19665;DHT22;9980;51.020;7.772;2023-02-01T14:53:19;8.20;99.90
19665;DHT22;9980;51.020;7.772;2023-02-01T14:56:11;8.20;99.90
19665;DHT22;9980;51.020;7.772;2023-02-01T15:01:34;8.20;99.90
19665;DHT22;9980;51.020;7.772;2023-02-01T15:04:09;8.20;99.90
19665;DHT22;9980;51.020;7.772;2023-02-01T15:06:37;8.10;99.90
19665;DHT22;9980;51.020;7.772;2023-02-01T15:09:24;8.10;99.90
19665;DHT22;9980;51.020;7.772;2023-02-01T15:14:33;8.20;99.90
19665;DHT22;9980;51.020;7.772;2023-02-01T15:17:01;8.20;99.90
19665;DHT22;9980;51.020;7.772;2023-02-01T15:19:55;8.20;99.90
19665;DHT22;9980;51.020;7.772;2023-02-01T15:22:24;8.20;99.90
19665;DHT22;9980;51.020;7.772;2023-02-01T15:24:53;8.20;99.90
19665;DHT22;9980;51.020;7.772;2023-02-01T15:27:24;8.20;99.90
19665;DHT22;9980;51.020;7.772;2023-02-01T15:29:51;8.20;99.90
19665;DHT22;9980;51.020;7.772;2023-02-01T15:32:38;8.20;99.90
19665;DHT22;9980;51.020;7.772;2023-02-01T15:35:30;8.20;99.90
19665;DHT22;9980;51.020;7.772;2023-02-01T15:38:34;8.20;99.90
19665;DHT22;9980;51.020;7.772;2023-02-01T15:41:10;8.20;99.90
19665;DHT22;9980;51.020;7.772;2023-02-01T15:46:36;8.20;99.90
19665;DHT22;9980;51.020;7.772;2023-02-01T15:51:54;8.20;99.90
19665;DHT22;9980;51.020;7.772;2023-02-01T15:57:03;8.20;99.90
19665;DHT22;9980;51.020;7.772;2023-02-01T15:59:37;8.20;99.90
19665;DHT22;9980;51.020;7.772;2023-02-01T16:05:37;8.20;99.90
19665;DHT22;9980;51.020;7.772;2023-02-01T16:08:15;8.20;99.90
19665;DHT22;9980;51.020;7.772;2023-02-01T16:10:44;8.20;99.90
19665;DHT22;9980;51.020;7.772;2023-02-01T16:13:14;8.20;99.90
19665;DHT22;9980;51.020;7.772;2023-02-01T16:15:41;8.20;99.90
19665;DHT22;9980;51.020;7.772;2023-02-01T16:18:08;8.20;99.90
19665;DHT22;9980;51.020;7.772;2023-02-01T16:20:37;8.30;99.90
19665;DHT22;9980;51.020;7.772;2023-02-01T16:23:05;8.20;99.90
19665;DHT22;9980;51.020;7.772;2023-02-01T16:25:33;8.20;99.90
19665;DHT22;9980;51.020;7.772;2023-02-01T16:27:59;8.20;99.90
19665;DHT22;9980;51.020;7.772;2023-02-01T16:30:26;8.20;99.90
19665;DHT22;9980;51.020;7.772;2023-02-01T16:32:56;8.20;99.90
19665;DHT22;9980;51.020;7.772;2023-02-01T16:35:35;8.20;99.90
19665;DHT22;9980;51.020;7.772;2023-02-01T16:38:04;8.20;99.90
19665;DHT22;9980;51.020;7.772;2023-02-01T16:40:38;8.20;99.90
19665;DHT22;9980;51.020;7.772;2023-02-01T16:43:21;8.30;99.90
19665;DHT22;9980;51.020;7.772;2023-02-01T16:45:51;8.30;99.90
19665;DHT22;9980;51.020;7.772;2023-02-01T16:48:21;8.20;99.90
19665;DHT22;9980;51.020;7.772;2023-02-01T16:50:51;8.20;99.90
19665;DHT22;9980;51.020;7.772;2023-02-01T16:53:20;8.30;99.90
19665;DHT22;9980;51.020;7.772;2023-02-01T16:55:48;8.30;99.90
19665;DHT22;9980;51.020;7.772;2023-02-01T16:58:16;8.30;99.90
19665;DHT22;9980;51.020;7.772;2023-02-01T17:00:43;8.30;99.90
19665;DHT22;9980;51.020;7.772;2023-02-01T17:03:14;8.30;99.90
19665;DHT22;9980;51.020;7.772;2023-02-01T17:05:50;8.30;99.90
19665;DHT22;9980;51.020;7.772;2023-02-01T17:08:32;8.30;99.90
19665;DHT22;9980;51.020;7.772;2023-02-01T17:11:01;8.30;99.90
19665;DHT22;9980;51.020;7.772;2023-02-01T17:13:29;8.30;99.90
19665;DHT22;9980;51.020;7.772;2023-02-01T17:16:02;8.30;99.90
19665;DHT22;9980;51.020;7.772;2023-02-01T17:18:35;8.30;99.90
19665;DHT22;9980;51.020;7.772;2023-02-01T17:21:03;8.30;99.90
19665;DHT22;9980;51.020;7.772;2023-02-01T17:23:31;8.30;99.90
19665;DHT22;9980;51.020;7.772;2023-02-01T17:25:58;8.30;99.90
19665;DHT22;9980;51.020;7.772;2023-02-01T17:28:24;8.30;99.90
19665;DHT22;9980;51.020;7.772;2023-02-01T17:30:50;8.30;99.90
19665;DHT22;9980;51.020;7.772;2023-02-01T17:33:25;8.30;99.90
19665;DHT22;9980;51.020;7.772;2023-02-01T17:35:55;8.40;99.90
19665;DHT22;9980;51.020;7.772;2023-02-01T17:38:22;8.40;99.90
19665;DHT22;9980;51.020;7.772;2023-02-01T17:40:49;8.30;99.90
19665;DHT22;9980;51.020;7.772;2023-02-01T17:43:23;8.30;99.90
19665;DHT22;9980;51.020;7.772;2023-02-01T17:45:59;8.40;99.90
19665;DHT22;9980;51.020;7.772;2023-02-01T17:48:29;8.40;99.90
19665;DHT22;9980;51.020;7.772;2023-02-01T17:50:55;8.40;99.90
19665;DHT22;9980;51.020;7.772;2023-02-01T17:53:25;8.40;99.90
19665;DHT22;9980;51.020;7.772;2023-02-01T17:55:53;8.40;99.90
19665;DHT22;9980;51.020;7.772;2023-02-01T17:58:23;8.40;99.90
19665;DHT22;9980;51.020;7.772;2023-02-01T18:00:51;8.40;99.90
19665;DHT22;9980;51.020;7.772;2023-02-01T18:03:24;8.40;99.90
19665;DHT22;9980;51.020;7.772;2023-02-01T18:05:56;8.40;99.90
19665;DHT22;9980;51.020;7.772;2023-02-01T18:08:25;8.40;99.90
19665;DHT22;9980;51.020;7.772;2023-02-01T18:10:58;8.40;99.90
19665;DHT22;9980;51.020;7.772;2023-02-01T18:13:27;8.40;99.90
19665;DHT22;9980;51.020;7.772;2023-02-01T18:15:53;8.50;99.90
19665;DHT22;9980;51.020;7.772;2023-02-01T18:18:20;8.50;99.90
19665;DHT22;9980;51.020;7.772;2023-02-01T18:20:47;8.50;99.90
19665;DHT22;9980;51.020;7.772;2023-02-01T18:23:22;8.50;99.90
19665;DHT22;9980;51.020;7.772;2023-02-01T18:25:50;8.50;99.90
19665;DHT22;9980;51.020;7.772;2023-02-01T18:28:18;8.50;99.90
19665;DHT22;9980;51.020;7.772;2023-02-01T18:30:49;8.50;99.90
19665;DHT22;9980;51.020;7.772;2023-02-01T18:33:18;8.50;99.90
19665;DHT22;9980;51.020;7.772;2023-02-01T18:35:46;8.50;99.90
19665;DHT22;9980;51.020;7.772;2023-02-01T18:38:12;8.50;99.90